Time;durP1;ratioP1;P1;durP2;ratioP2;P2;SDS_P1;SDS_P2;PMS_P1;PMS_P2;Temp;Humidity;BMP_temperature;BMP_pressure;BME280_temperature;BME280_humidity;BME280_pressure;Samples;Min_cycle;Max_cycle;Signal;HPM_P1;HPM_P2
2021/12/21 00:00:43;;;;;;;1.50;0.80;;;-0.10;92.70;;;;;;5017856;28;20041;-79
2021/12/21 00:03:09;;;;;;;1.40;0.63;;;-0.20;92.70;;;;;;5017114;28;20128;-78
2021/12/21 00:05:36;;;;;;;0.70;0.50;;;-0.10;92.70;;;;;;5051697;28;20183;-78
2021/12/21 00:08:05;;;;;;;0.52;0.45;;;-0.10;92.70;;;;;;5032373;28;20053;-78
2021/12/21 00:10:33;;;;;;;0.98;0.50;;;-0.20;92.60;;;;;;5051775;28;20048;-78
2021/12/21 00:13:05;;;;;;;0.95;0.73;;;-0.10;92.60;;;;;;5033606;28;20116;-78
2021/12/21 00:15:45;;;;;;;1.10;0.60;;;-0.20;92.60;;;;;;4986069;28;20033;-77
2021/12/21 00:21:03;;;;;;;1.08;0.57;;;-0.30;92.60;;;;;;5035503;28;20049;-78
2021/12/21 00:23:32;;;;;;;0.40;0.38;;;-0.20;92.60;;;;;;5018391;28;20387;-79
2021/12/21 00:26:03;;;;;;;0.38;0.35;;;-0.30;92.60;;;;;;5001172;28;20401;-78
2021/12/21 00:28:34;;;;;;;0.30;0.28;;;-0.10;92.70;;;;;;4998584;28;20040;-79
2021/12/21 00:31:00;;;;;;;0.93;0.43;;;-0.30;92.70;;;;;;5002219;28;20071;-79
2021/12/21 00:33:30;;;;;;;0.93;0.47;;;-0.30;92.70;;;;;;5000421;28;20444;-79
2021/12/21 00:36:01;;;;;;;0.82;0.35;;;-0.30;92.60;;;;;;5000905;28;20045;-79
2021/12/21 00:38:28;;;;;;;0.45;0.40;;;-0.30;92.60;;;;;;5001315;28;20114;-79
2021/12/21 00:40:53;;;;;;;0.55;0.47;;;-0.30;92.60;;;;;;5000767;28;20051;-78
2021/12/21 00:43:19;;;;;;;0.60;0.40;;;-0.30;92.70;;;;;;5033728;28;20104;-79
2021/12/21 00:45:45;;;;;;;0.52;0.40;;;-0.20;92.70;;;;;;5001108;28;20056;-79
2021/12/21 00:48:11;;;;;;;1.70;0.50;;;-0.40;92.60;;;;;;5050847;28;20041;-79
2021/12/21 00:50:39;;;;;;;0.50;0.40;;;-0.40;92.60;;;;;;5016867;28;20402;-80
2021/12/21 00:53:23;;;;;;;0.88;0.45;;;-0.30;92.70;;;;;;4954813;28;20096;-80
2021/12/21 01:00:35;;;;;;;0.95;0.50;;;-0.50;92.60;;;;;;4934397;29;20047;-80
2021/12/21 01:03:09;;;;;;;0.47;0.43;;;-0.50;92.60;;;;;;4876891;29;20052;-79
2021/12/21 01:05:45;;;;;;;0.22;0.22;;;-0.40;92.60;;;;;;4848826;29;20052;-80
2021/12/21 01:08:16;;;;;;;0.80;0.38;;;-0.40;92.60;;;;;;4850015;29;20672;-80
2021/12/21 01:11:01;;;;;;;0.57;0.43;;;-0.50;92.60;;;;;;4848129;29;20049;-80
2021/12/21 01:13:39;;;;;;;0.40;0.40;;;-0.50;92.60;;;;;;4852598;29;20056;-78
2021/12/21 01:16:18;;;;;;;1.05;0.40;;;-0.60;92.60;;;;;;4848526;29;20135;-78
2021/12/21 01:19:01;;;;;;;0.73;0.38;;;-0.60;92.60;;;;;;4850574;29;20666;-78
2021/12/21 01:21:33;;;;;;;0.43;0.40;;;-0.60;92.70;;;;;;4854474;29;20049;-78
2021/12/21 01:26:51;;;;;;;2.22;0.52;;;-0.60;92.70;;;;;;4906625;29;20534;-76
2021/12/21 01:29:28;;;;;;;0.40;0.40;;;-0.60;92.70;;;;;;4933704;29;20054;-77
2021/12/21 01:32:05;;;;;;;0.47;0.30;;;-0.70;92.70;;;;;;4957753;28;20129;-77
2021/12/21 01:34:45;;;;;;;0.50;0.40;;;-0.70;92.70;;;;;;5046579;28;20060;-75
2021/12/21 01:37:23;;;;;;;0.85;0.47;;;-0.70;92.70;;;;;;5053720;28;20049;-79
2021/12/21 01:50:27;;;;;;;0.82;0.35;;;-0.80;92.80;;;;;;5053546;28;20045;-77
2021/12/21 01:52:53;;;;;;;0.40;0.35;;;-0.80;92.80;;;;;;5053573;28;20044;-76
2021/12/21 01:55:19;;;;;;;1.45;0.65;;;-0.80;92.80;;;;;;5053303;28;20544;-77
2021/12/21 01:57:45;;;;;;;0.40;0.40;;;-0.80;92.70;;;;;;5035430;28;20116;-78
2021/12/21 02:00:11;;;;;;;0.55;0.45;;;-0.90;92.70;;;;;;5019030;28;20025;-78
2021/12/21 02:02:37;;;;;;;0.32;0.32;;;-0.90;92.70;;;;;;5035757;28;20116;-78
2021/12/21 02:05:03;;;;;;;0.50;0.20;;;-0.90;92.70;;;;;;5053783;28;20124;-77
2021/12/21 02:07:29;;;;;;;0.57;0.30;;;-1.00;93.00;;;;;;5001792;28;20026;-77
2021/12/21 02:09:54;;;;;;;0.40;0.40;;;-1.00;92.70;;;;;;5018857;28;20102;-78
2021/12/21 02:12:21;;;;;;;0.55;0.50;;;-1.00;92.80;;;;;;5035356;28;20083;-78
2021/12/21 02:14:55;;;;;;;0.57;0.40;;;-1.00;92.80;;;;;;5018678;28;20479;-80
2021/12/21 02:17:53;;;;;;;0.30;0.30;;;-1.00;92.80;;;;;;5035148;28;20049;-80
2021/12/21 02:20:21;;;;;;;0.63;0.30;;;-1.00;92.80;;;;;;5024462;28;20083;-77
2021/12/21 02:22:55;;;;;;;0.90;0.52;;;-1.00;92.80;;;;;;5036760;28;20048;-79
2021/12/21 02:25:50;;;;;;;0.65;0.40;;;-1.10;92.80;;;;;;5035763;28;20610;-78
2021/12/21 02:28:37;;;;;;;0.50;0.38;;;-1.10;92.80;;;;;;5040848;28;20612;-76
2021/12/21 02:30:55;;;;;;;0.57;0.40;;;-1.10;92.80;;;;;;5047224;28;20074;-78
2021/12/21 02:33:22;;;;;;;0.70;0.40;;;-1.00;92.80;;;;;;5040891;28;20096;-78
2021/12/21 02:35:49;;;;;;;0.50;0.40;;;-1.00;92.80;;;;;;5040517;28;20063;-78
2021/12/21 02:38:15;;;;;;;0.40;0.40;;;-1.00;92.80;;;;;;5026618;28;20048;-78
2021/12/21 02:40:41;;;;;;;0.85;0.40;;;-1.00;92.70;;;;;;5077843;28;20116;-78
2021/12/21 02:43:10;;;;;;;0.45;0.30;;;-1.00;92.70;;;;;;5042946;28;20068;-78
2021/12/21 02:45:37;;;;;;;0.60;0.40;;;-1.00;92.70;;;;;;5044432;28;20052;-79
2021/12/21 02:48:03;;;;;;;0.85;0.40;;;-1.00;92.70;;;;;;5077658;28;20033;-78
2021/12/21 02:50:29;;;;;;;0.82;0.50;;;-1.10;92.70;;;;;;5077555;28;20052;-79
2021/12/21 02:52:54;;;;;;;1.20;0.45;;;-1.00;92.70;;;;;;5077382;28;20029;-79
2021/12/21 02:55:20;;;;;;;1.08;0.30;;;-1.00;92.70;;;;;;5060215;28;20734;-79
2021/12/21 02:57:46;;;;;;;0.93;0.40;;;-1.00;92.70;;;;;;5077592;28;20036;-79
2021/12/21 03:00:13;;;;;;;0.30;0.30;;;-1.10;92.60;;;;;;5077545;28;20120;-80
2021/12/21 03:02:39;;;;;;;0.93;0.45;;;-1.00;92.70;;;;;;5043271;28;20037;-79
2021/12/21 03:05:06;;;;;;;0.28;0.22;;;-1.00;92.70;;;;;;5076881;28;20059;-79
2021/12/21 03:07:48;;;;;;;0.40;0.40;;;-1.00;92.70;;;;;;5043517;28;20048;-79
2021/12/21 03:10:16;;;;;;;0.55;0.40;;;-1.00;92.70;;;;;;5060478;22;20036;-79
2021/12/21 03:15:31;;;;;;;0.65;0.40;;;-1.00;92.60;;;;;;5048282;28;20051;-79
2021/12/21 03:17:57;;;;;;;1.00;0.50;;;-0.90;92.70;;;;;;5042836;28;20037;-78
2021/12/21 03:20:24;;;;;;;1.02;0.30;;;-0.90;92.70;;;;;;5042770;28;20057;-79
2021/12/21 03:22:51;;;;;;;0.95;0.50;;;-1.00;92.60;;;;;;5059384;28;20049;-79
2021/12/21 03:25:18;;;;;;;1.35;0.50;;;-1.00;92.70;;;;;;5002728;28;20037;-79
2021/12/21 03:27:46;;;;;;;0.25;0.25;;;-1.00;92.60;;;;;;4980149;28;20676;-79
2021/12/21 03:30:14;;;;;;;0.65;0.50;;;-1.00;92.60;;;;;;4938084;28;20141;-79
2021/12/21 03:32:43;;;;;;;0.93;0.52;;;-1.10;92.60;;;;;;4922611;28;20055;-79
2021/12/21 03:35:10;;;;;;;0.63;0.43;;;-1.00;92.70;;;;;;4921653;29;20040;-79
2021/12/21 03:37:36;;;;;;;0.38;0.35;;;-1.10;92.70;;;;;;4907011;28;20036;-78
2021/12/21 03:40:06;;;;;;;0.38;0.38;;;-1.10;92.70;;;;;;4891859;29;20044;-78
2021/12/21 03:42:32;;;;;;;0.70;0.40;;;-1.10;92.70;;;;;;4921884;28;20079;-78
2021/12/21 03:44:58;;;;;;;0.45;0.40;;;-1.10;92.70;;;;;;5078624;23;20048;-80
2021/12/21 03:47:27;;;;;;;0.68;0.45;;;-1.10;92.70;;;;;;5042312;28;20048;-79
2021/12/21 03:50:00;;;;;;;0.88;0.57;;;-1.20;92.70;;;;;;5018046;28;20049;-80
2021/12/21 03:52:28;;;;;;;0.22;0.22;;;-1.30;92.70;;;;;;5076321;28;20100;-80
2021/12/21 03:54:58;;;;;;;0.75;0.40;;;-1.20;92.80;;;;;;5058839;28;20041;-80
2021/12/21 03:57:28;;;;;;;0.70;0.38;;;-1.20;92.80;;;;;;5042346;28;20109;-80
2021/12/21 03:59:55;;;;;;;0.52;0.30;;;-1.20;92.80;;;;;;5018535;28;20057;-79
2021/12/21 04:02:24;;;;;;;0.70;0.50;;;-1.20;92.80;;;;;;5017203;28;20048;-80
2021/12/21 04:04:54;;;;;;;0.90;0.40;;;-1.20;92.80;;;;;;5017546;28;20089;-80
2021/12/21 04:07:21;;;;;;;0.20;0.20;;;-1.20;92.80;;;;;;5034188;28;20061;-77
2021/12/21 04:09:48;;;;;;;1.42;0.77;;;-1.20;92.80;;;;;;4962595;28;20070;-78
2021/12/21 04:12:17;;;;;;;0.35;0.30;;;-1.20;92.80;;;;;;4956861;28;20110;-78
2021/12/21 04:14:43;;;;;;;0.40;0.30;;;-1.30;92.80;;;;;;4909704;29;20075;-80
2021/12/21 04:17:16;;;;;;;1.17;0.50;;;-1.20;92.80;;;;;;4939572;28;20056;-79
2021/12/21 04:19:42;;;;;;;1.17;0.50;;;-1.30;92.80;;;;;;4940414;29;20092;-79
2021/12/21 04:22:07;;;;;;;1.23;0.57;;;-1.30;92.80;;;;;;4937690;29;20040;-80
2021/12/21 04:24:33;;;;;;;0.93;0.40;;;-1.40;92.80;;;;;;4920233;29;20639;-79
2021/12/21 04:26:59;;;;;;;2.05;0.38;;;-1.40;92.80;;;;;;4954068;29;20044;-80
2021/12/21 04:29:25;;;;;;;0.60;0.38;;;-1.40;92.80;;;;;;4952813;29;20066;-80
2021/12/21 04:31:50;;;;;;;0.40;0.40;;;-1.40;92.90;;;;;;4920039;29;20040;-80
2021/12/21 04:34:16;;;;;;;0.47;0.28;;;-1.40;92.90;;;;;;4951417;29;20112;-78
2021/12/21 04:36:44;;;;;;;0.80;0.40;;;-1.50;92.80;;;;;;4937226;29;20042;-80
2021/12/21 04:39:20;;;;;;;0.55;0.43;;;-1.50;92.90;;;;;;4938670;29;20556;-80
2021/12/21 04:41:46;;;;;;;0.20;0.20;;;-1.50;92.90;;;;;;4986287;28;20034;-79
2021/12/21 04:44:12;;;;;;;0.30;0.30;;;-1.50;92.90;;;;;;5027031;28;20049;-80
2021/12/21 04:46:38;;;;;;;0.45;0.40;;;-1.50;92.90;;;;;;5054225;28;20044;-80
2021/12/21 04:49:04;;;;;;;0.47;0.35;;;-1.50;92.90;;;;;;5074550;28;20032;-80
2021/12/21 04:51:29;;;;;;;0.68;0.45;;;-1.60;92.90;;;;;;5041165;28;20029;-79
2021/12/21 04:53:55;;;;;;;0.47;0.30;;;-1.60;92.90;;;;;;4998731;28;20026;-80
2021/12/21 04:56:21;;;;;;;0.93;0.60;;;-1.60;92.90;;;;;;5001065;28;20060;-80
2021/12/21 04:58:47;;;;;;;1.00;0.32;;;-1.60;92.90;;;;;;5017986;28;20058;-80
2021/12/21 05:01:13;;;;;;;0.68;0.30;;;-1.60;92.90;;;;;;5018690;28;20038;-81
2021/12/21 05:03:38;;;;;;;0.80;0.40;;;-1.60;92.90;;;;;;5019008;28;20057;-82
2021/12/21 05:06:04;;;;;;;0.25;0.25;;;-1.60;92.90;;;;;;5018942;28;20050;-81
2021/12/21 05:08:35;;;;;;;0.70;0.40;;;-1.60;92.90;;;;;;5018814;28;20034;-81
2021/12/21 05:14:17;;;;;;;0.38;0.30;;;-1.70;92.90;;;;;;5019472;23;20036;-78
2021/12/21 05:16:43;;;;;;;0.60;0.50;;;-1.70;92.90;;;;;;4928751;29;20036;-78
2021/12/21 05:19:09;;;;;;;0.40;0.30;;;-1.70;92.90;;;;;;4943971;28;20059;-78
2021/12/21 05:21:40;;;;;;;0.45;0.35;;;-1.70;92.90;;;;;;4883669;29;20129;-78
2021/12/21 05:24:13;;;;;;;0.77;0.50;;;-1.70;92.90;;;;;;4884001;29;20053;-78
2021/12/21 05:26:39;;;;;;;0.75;0.43;;;-1.60;92.90;;;;;;5728165;23;20048;-78
2021/12/21 05:29:07;;;;;;;0.68;0.40;;;-1.70;92.90;;;;;;4947684;23;20104;-80
2021/12/21 05:34:45;;;;;;;0.50;0.40;;;-1.70;92.90;;;;;;4929769;29;20077;-78
2021/12/21 05:37:14;;;;;;;0.73;0.52;;;-1.70;92.80;;;;;;4898969;29;20083;-78
2021/12/21 05:42:30;;;;;;;0.80;0.50;;;-1.80;92.80;;;;;;4863822;29;20053;-77
2021/12/21 05:44:56;;;;;;;0.38;0.35;;;-1.80;92.80;;;;;;4827945;29;20050;-78
2021/12/21 05:47:22;;;;;;;0.43;0.40;;;-1.80;92.80;;;;;;4828080;29;20055;-78
2021/12/21 05:49:48;;;;;;;0.82;0.60;;;-1.70;92.90;;;;;;4813276;29;20117;-78
2021/12/21 05:52:19;;;;;;;1.02;0.55;;;-1.80;92.80;;;;;;4827885;29;20062;-78
2021/12/21 05:54:53;;;;;;;0.90;0.40;;;-1.90;92.90;;;;;;4798716;29;20039;-78
2021/12/21 05:57:20;;;;;;;1.25;0.50;;;-1.80;92.90;;;;;;5165200;23;20024;-80
2021/12/21 05:59:46;;;;;;;1.75;0.70;;;-1.80;92.90;;;;;;4876891;29;20040;-80
2021/12/21 06:05:29;;;;;;;0.40;0.40;;;-1.80;92.90;;;;;;5813272;23;20084;-78
2021/12/21 06:10:35;;;;;;;0.50;0.40;;;-1.80;92.80;;;;;;5320363;23;20047;-78
2021/12/21 06:16:21;;;;;;;0.70;0.40;;;-1.70;92.80;;;;;;4927025;29;20062;-78
2021/12/21 06:26:46;;;;;;;1.55;0.55;;;-1.70;92.80;;;;;;4883470;29;20064;-78
2021/12/21 06:29:13;;;;;;;0.63;0.50;;;-1.70;92.80;;;;;;4809394;29;20137;-78
2021/12/21 06:31:40;;;;;;;0.70;0.60;;;-1.70;92.80;;;;;;4788480;29;20131;-77
2021/12/21 06:34:08;;;;;;;0.82;0.60;;;-1.70;92.70;;;;;;4782520;30;20064;-78
2021/12/21 06:36:36;;;;;;;0.35;0.32;;;-1.70;92.80;;;;;;4764306;30;20060;-78
2021/12/21 06:39:05;;;;;;;1.00;0.60;;;-1.70;92.80;;;;;;4761020;30;20048;-78
2021/12/21 06:41:31;;;;;;;1.80;0.70;;;-1.70;92.80;;;;;;4731299;30;20033;-77
2021/12/21 06:44:00;;;;;;;0.68;0.47;;;-1.70;92.80;;;;;;4732406;30;20087;-78
2021/12/21 06:46:47;;;;;;;0.55;0.47;;;-1.80;92.80;;;;;;4732581;30;20494;-78
2021/12/21 06:51:55;;;;;;;1.05;0.60;;;-1.70;92.70;;;;;;4741335;30;20080;-78
2021/12/21 06:54:21;;;;;;;0.32;0.22;;;-1.80;92.70;;;;;;4756303;30;20046;-78
2021/12/21 06:56:47;;;;;;;0.82;0.60;;;-1.70;92.80;;;;;;4764889;30;20051;-78
2021/12/21 06:59:13;;;;;;;1.10;0.55;;;-1.70;92.80;;;;;;4769827;29;20070;-78
2021/12/21 07:01:39;;;;;;;1.98;0.52;;;-1.70;92.80;;;;;;4822870;29;21087;-78
2021/12/21 07:04:07;;;;;;;0.95;0.47;;;-1.70;92.80;;;;;;4876751;29;20120;-78
2021/12/21 07:06:36;;;;;;;0.70;0.50;;;-1.60;92.80;;;;;;4877457;29;20045;-78
2021/12/21 07:09:13;;;;;;;1.15;0.63;;;-1.70;92.80;;;;;;4874596;29;20064;-78
2021/12/21 07:11:44;;;;;;;0.90;0.50;;;-1.80;92.70;;;;;;4856604;29;20060;-78
2021/12/21 07:19:37;;;;;;;1.15;0.63;;;-1.70;92.80;;;;;;4914334;29;20060;-78
2021/12/21 07:22:05;;;;;;;0.93;0.60;;;-1.70;92.80;;;;;;4912374;29;20066;-79
2021/12/21 07:24:31;;;;;;;1.63;0.52;;;-1.70;92.80;;;;;;4879793;29;20490;-78
2021/12/21 07:26:57;;;;;;;0.60;0.60;;;-1.70;92.80;;;;;;4927882;29;20099;-79
2021/12/21 07:29:24;;;;;;;0.85;0.47;;;-1.70;92.80;;;;;;4910102;29;20063;-78
2021/12/21 07:31:50;;;;;;;0.73;0.47;;;-1.70;92.80;;;;;;4908615;29;20131;-78
2021/12/21 07:34:17;;;;;;;0.82;0.57;;;-1.70;92.80;;;;;;4923631;29;20064;-78
2021/12/21 07:36:43;;;;;;;0.73;0.47;;;-1.70;92.80;;;;;;4896319;29;20040;-78
2021/12/21 07:39:13;;;;;;;1.50;0.90;;;-1.80;92.80;;;;;;4907715;29;20047;-78
2021/12/21 07:41:40;;;;;;;1.20;0.60;;;-1.80;92.80;;;;;;4925662;29;20047;-78
2021/12/21 07:44:05;;;;;;;1.70;0.52;;;-1.80;92.80;;;;;;4909805;29;20040;-78
2021/12/21 07:46:31;;;;;;;1.08;0.70;;;-1.80;92.80;;;;;;4926155;29;20050;-78
2021/12/21 07:48:58;;;;;;;0.80;0.65;;;-1.70;92.90;;;;;;4925582;29;20076;-78
2021/12/21 07:51:24;;;;;;;0.70;0.50;;;-1.70;92.80;;;;;;4923013;29;20490;-78
2021/12/21 07:53:50;;;;;;;1.20;0.63;;;-1.70;92.80;;;;;;4891101;29;20113;-78
2021/12/21 07:56:17;;;;;;;1.73;0.80;;;-1.70;92.80;;;;;;4925621;29;20055;-78
2021/12/21 07:58:44;;;;;;;0.88;0.60;;;-1.70;92.80;;;;;;4926390;29;20059;-78
2021/12/21 08:01:11;;;;;;;1.33;0.60;;;-1.70;92.80;;;;;;4909272;29;20059;-78
2021/12/21 08:03:37;;;;;;;0.88;0.52;;;-1.70;92.80;;;;;;4908232;29;20093;-79
2021/12/21 08:06:05;;;;;;;1.02;0.75;;;-1.70;92.80;;;;;;4908687;29;20044;-79
2021/12/21 08:08:31;;;;;;;1.23;0.65;;;-1.70;92.80;;;;;;4909144;29;20903;-79
2021/12/21 08:13:39;;;;;;;1.20;0.70;;;-1.70;92.80;;;;;;4909172;29;20058;-78
2021/12/21 08:16:05;;;;;;;0.73;0.60;;;-1.70;92.80;;;;;;4880423;29;20076;-78
2021/12/21 08:18:31;;;;;;;1.38;0.70;;;-1.60;92.80;;;;;;4909349;29;20044;-79
2021/12/21 08:20:57;;;;;;;0.77;0.55;;;-1.60;92.80;;;;;;4911787;29;20074;-78
2021/12/21 08:23:23;;;;;;;1.17;0.52;;;-1.50;92.80;;;;;;4929636;29;20068;-78
2021/12/21 08:25:49;;;;;;;1.40;0.80;;;-1.50;92.70;;;;;;4927643;29;20047;-78
2021/12/21 08:28:15;;;;;;;2.03;0.65;;;-1.40;92.70;;;;;;4913745;29;20040;-78
2021/12/21 08:30:41;;;;;;;1.98;0.88;;;-1.40;92.70;;;;;;4883517;29;20053;-78
2021/12/21 08:33:07;;;;;;;1.27;0.75;;;-1.40;92.70;;;;;;4901173;29;20104;-78
2021/12/21 08:35:33;;;;;;;0.98;0.70;;;-1.30;92.60;;;;;;4934180;29;20040;-78
2021/12/21 08:38:04;;;;;;;1.08;0.57;;;-1.30;92.60;;;;;;4898783;29;20043;-78
2021/12/21 08:40:38;;;;;;;1.63;0.90;;;-1.30;92.90;;;;;;4918283;29;20048;-78
2021/12/21 08:43:07;;;;;;;1.52;0.70;;;-1.30;92.60;;;;;;4938772;29;20343;-78
2021/12/21 08:45:35;;;;;;;1.20;0.80;;;-1.20;92.60;;;;;;4889920;29;20056;-78
2021/12/21 08:48:00;;;;;;;2.05;0.80;;;-1.20;92.60;;;;;;4928985;29;20072;-79
2021/12/21 08:50:26;;;;;;;2.00;0.95;;;-1.20;92.60;;;;;;4935818;29;20055;-78
2021/12/21 08:52:52;;;;;;;1.08;0.70;;;-1.00;92.60;;;;;;4903348;29;20191;-78
2021/12/21 08:55:18;;;;;;;1.77;1.00;;;-1.00;92.50;;;;;;4903965;29;20036;-78
2021/12/21 08:57:44;;;;;;;1.15;0.70;;;-1.00;92.50;;;;;;4919382;29;20025;-78
2021/12/21 09:00:11;;;;;;;1.35;0.65;;;-0.90;92.50;;;;;;4888838;29;20060;-78
2021/12/21 09:02:38;;;;;;;1.08;0.80;;;-0.90;92.50;;;;;;4902948;29;20056;-78
2021/12/21 09:05:11;;;;;;;1.52;0.82;;;-0.80;92.50;;;;;;4916527;29;20048;-77
2021/12/21 09:07:38;;;;;;;1.33;0.75;;;-0.80;92.50;;;;;;4903135;29;20869;-78
2021/12/21 09:10:05;;;;;;;1.50;0.90;;;-0.80;92.40;;;;;;4914598;29;20112;-79
2021/12/21 09:12:30;;;;;;;1.63;0.80;;;-0.70;92.40;;;;;;4928889;29;20108;-78
2021/12/21 09:14:56;;;;;;;0.93;0.60;;;-0.60;92.40;;;;;;4926353;29;20033;-79
2021/12/21 09:17:22;;;;;;;2.22;0.88;;;-0.60;92.40;;;;;;4909529;29;20842;-79
2021/12/21 09:19:48;;;;;;;1.55;0.80;;;-0.60;92.30;;;;;;4920995;29;20048;-80
2021/12/21 09:22:13;;;;;;;2.65;1.20;;;-0.50;92.40;;;;;;4920442;29;20071;-80
2021/12/21 09:24:39;;;;;;;1.25;0.70;;;-0.40;92.40;;;;;;4918763;29;20106;-80
2021/12/21 09:27:05;;;;;;;0.95;0.70;;;-0.40;92.30;;;;;;4886130;29;20055;-80
2021/12/21 09:29:31;;;;;;;1.35;0.75;;;-0.40;92.30;;;;;;4901584;29;20045;-80
2021/12/21 09:31:56;;;;;;;1.65;0.93;;;-0.40;92.30;;;;;;4885255;29;20044;-81
2021/12/21 09:34:22;;;;;;;1.50;0.90;;;-0.40;92.30;;;;;;4883718;29;20072;-80
2021/12/21 09:36:48;;;;;;;2.60;0.95;;;-0.30;92.30;;;;;;4884587;29;20040;-80
2021/12/21 09:39:14;;;;;;;1.20;0.68;;;-0.20;92.20;;;;;;4884372;29;20044;-80
2021/12/21 09:41:40;;;;;;;2.45;1.15;;;-0.20;92.20;;;;;;4899268;29;20372;-80
2021/12/21 09:44:05;;;;;;;1.17;0.75;;;-0.20;92.20;;;;;;4917254;29;20490;-80
2021/12/21 09:46:31;;;;;;;1.40;0.70;;;-0.10;92.20;;;;;;4917376;29;20040;-80
2021/12/21 09:48:57;;;;;;;1.40;0.68;;;-0.10;92.20;;;;;;4916836;29;20044;-80
2021/12/21 09:51:23;;;;;;;1.50;0.80;;;0.00;92.20;;;;;;4900046;29;20043;-80
2021/12/21 09:53:51;;;;;;;1.48;0.80;;;0.00;92.20;;;;;;4884411;29;20131;-80
2021/12/21 09:56:18;;;;;;;1.58;0.77;;;0.10;92.20;;;;;;4900148;29;20040;-80
2021/12/21 09:58:44;;;;;;;1.63;0.95;;;0.10;92.20;;;;;;4884335;29;20055;-81
2021/12/21 10:01:10;;;;;;;1.45;0.80;;;0.10;92.10;;;;;;4868825;29;20054;-81
2021/12/21 10:03:36;;;;;;;1.30;0.63;;;0.20;92.10;;;;;;4869111;29;20044;-80
2021/12/21 10:06:06;;;;;;;1.65;0.90;;;0.20;92.20;;;;;;4869265;29;20390;-80
2021/12/21 10:08:33;;;;;;;2.28;0.88;;;0.30;92.10;;;;;;4916982;29;20036;-81
2021/12/21 10:11:00;;;;;;;1.33;0.85;;;0.30;92.40;;;;;;4884859;29;20502;-80
2021/12/21 10:13:27;;;;;;;1.80;0.75;;;0.30;92.10;;;;;;4899681;29;20040;-80
2021/12/21 10:16:00;;;;;;;2.17;1.20;;;0.30;92.10;;;;;;4900170;29;20398;-82
2021/12/21 10:18:39;;;;;;;2.42;1.33;;;0.40;92.10;;;;;;4869695;29;20127;-82
2021/12/21 10:22:09;;;;;;;2.15;1.10;;;0.40;92.10;;;;;;4914941;29;20044;-79
2021/12/21 10:24:44;;;;;;;1.25;0.90;;;0.50;92.20;;;;;;4913513;29;20044;-78
2021/12/21 10:27:10;;;;;;;1.73;1.00;;;0.50;92.10;;;;;;4916159;29;20044;-80
2021/12/21 10:29:59;;;;;;;2.38;1.10;;;0.50;92.10;;;;;;4884101;29;20041;-78
2021/12/21 10:32:30;;;;;;;2.28;1.23;;;0.60;92.10;;;;;;4882323;29;20044;-79
2021/12/21 10:35:41;;;;;;;2.15;1.40;;;0.60;92.00;;;;;;4898243;29;20077;-83
2021/12/21 10:38:43;;;;;;;2.97;1.30;;;0.70;92.10;;;;;;4804565;29;20509;-83
2021/12/21 10:44:37;;;;;;;2.70;1.00;;;0.80;92.00;;;;;;4727311;30;20515;-83
2021/12/21 10:47:25;;;;;;;1.23;0.88;;;0.90;92.00;;;;;;4734313;30;20074;-81
2021/12/21 10:55:13;;;;;;;1.80;1.10;;;1.00;92.00;;;;;;4638700;30;20125;-82
2021/12/21 11:05:17;;;;;;;1.35;0.80;;;1.00;91.80;;;;;;4613434;31;20055;-81
2021/12/21 11:07:53;;;;;;;1.75;1.10;;;1.10;91.80;;;;;;4600140;31;20607;-80
2021/12/21 11:10:27;;;;;;;2.33;1.15;;;1.10;91.80;;;;;;4599053;31;20063;-79
2021/12/21 11:13:05;;;;;;;1.70;1.00;;;1.30;91.80;;;;;;4612499;30;20430;-78
2021/12/21 11:15:34;;;;;;;1.50;1.00;;;1.10;91.80;;;;;;4651997;30;20034;-77
2021/12/21 11:18:04;;;;;;;2.47;1.10;;;1.30;91.80;;;;;;4665393;30;20108;-78
2021/12/21 11:20:30;;;;;;;3.38;1.10;;;1.30;91.80;;;;;;4675623;30;20042;-77
2021/12/21 11:22:57;;;;;;;1.77;0.98;;;1.30;91.80;;;;;;4768868;30;20134;-77
2021/12/21 11:25:23;;;;;;;2.30;1.35;;;1.40;91.80;;;;;;4834293;29;20045;-77
2021/12/21 11:27:50;;;;;;;1.95;1.30;;;1.40;91.80;;;;;;4807883;29;20093;-77
2021/12/21 11:30:21;;;;;;;2.03;1.15;;;1.40;91.80;;;;;;4857713;29;20041;-78
2021/12/21 11:32:49;;;;;;;2.97;1.50;;;1.60;91.80;;;;;;4912836;29;20036;-78
2021/12/21 11:38:09;;;;;;;2.67;1.33;;;1.50;91.80;;;;;;4888506;29;20396;-77
2021/12/21 11:40:39;;;;;;;2.60;1.50;;;1.60;91.80;;;;;;4883117;29;20047;-78
2021/12/21 11:43:16;;;;;;;3.58;1.60;;;1.60;91.70;;;;;;4915506;29;20483;-79
2021/12/21 11:45:58;;;;;;;2.17;1.20;;;1.70;91.80;;;;;;4867958;29;20062;-79
2021/12/21 11:48:31;;;;;;;2.03;1.30;;;1.80;91.70;;;;;;4898636;29;20491;-79
2021/12/21 11:51:04;;;;;;;1.40;1.10;;;1.90;91.70;;;;;;4898799;29;20044;-79
2021/12/21 11:53:30;;;;;;;2.65;1.50;;;1.90;91.70;;;;;;4883222;29;20040;-79
2021/12/21 11:55:56;;;;;;;3.22;1.60;;;1.90;91.70;;;;;;4867636;29;20042;-79
2021/12/21 11:58:25;;;;;;;1.95;1.20;;;2.00;91.60;;;;;;4915433;29;20047;-79
2021/12/21 12:00:58;;;;;;;1.98;1.17;;;2.10;91.60;;;;;;4880937;29;20037;-80
2021/12/21 12:03:27;;;;;;;1.77;1.23;;;2.30;91.60;;;;;;4897700;29;20501;-79
2021/12/21 12:05:58;;;;;;;2.38;1.20;;;2.20;91.50;;;;;;4898492;29;20901;-79
2021/12/21 12:08:27;;;;;;;2.85;1.40;;;2.30;91.50;;;;;;4896369;29;20050;-79
2021/12/21 12:10:58;;;;;;;2.70;1.45;;;2.30;91.50;;;;;;4867205;29;20044;-79
2021/12/21 12:13:37;;;;;;;3.13;1.50;;;2.40;91.50;;;;;;4915313;29;20140;-80
2021/12/21 12:16:08;;;;;;;2.20;1.20;;;2.50;91.40;;;;;;4914198;29;20048;-80
2021/12/21 12:18:50;;;;;;;2.83;1.50;;;2.60;91.40;;;;;;4915027;29;20033;-80
2021/12/21 12:21:22;;;;;;;2.85;1.40;;;2.60;91.30;;;;;;4897770;29;20048;-79
2021/12/21 12:23:51;;;;;;;2.75;1.45;;;2.70;91.30;;;;;;4882163;29;20051;-79
2021/12/21 12:26:29;;;;;;;2.20;1.33;;;2.70;91.30;;;;;;4883175;29;20064;-80
2021/12/21 12:29:10;;;;;;;1.63;1.17;;;2.80;91.30;;;;;;4874168;29;20537;-79
2021/12/21 12:31:38;;;;;;;1.52;1.13;;;2.80;91.20;;;;;;4927811;29;20135;-79
2021/12/21 12:34:05;;;;;;;2.08;1.10;;;2.80;91.10;;;;;;4918025;29;20125;-80
2021/12/21 12:36:34;;;;;;;1.70;1.13;;;2.90;91.20;;;;;;4905193;29;20048;-78
2021/12/21 12:39:00;;;;;;;2.42;1.35;;;2.90;91.10;;;;;;4898623;29;20058;-78
2021/12/21 12:41:26;;;;;;;2.72;1.40;;;3.00;91.10;;;;;;4901103;29;20112;-78
2021/12/21 12:43:52;;;;;;;2.95;1.48;;;3.00;91.10;;;;;;4898379;29;20648;-78
2021/12/21 12:46:28;;;;;;;2.97;1.45;;;3.10;91.00;;;;;;4931890;29;20036;-78
2021/12/21 12:48:57;;;;;;;2.58;1.30;;;3.10;91.00;;;;;;4934692;29;20036;-78
2021/12/21 12:51:26;;;;;;;3.70;1.90;;;3.10;91.00;;;;;;4903162;29;20098;-78
2021/12/21 12:53:51;;;;;;;2.83;1.58;;;3.20;91.00;;;;;;4884392;29;20561;-79
2021/12/21 12:56:19;;;;;;;2.30;1.20;;;3.20;91.00;;;;;;4902450;29;20033;-79
2021/12/21 12:58:52;;;;;;;2.47;1.52;;;3.20;91.00;;;;;;4909521;29;20048;-79
2021/12/21 13:01:23;;;;;;;1.75;1.08;;;3.20;91.00;;;;;;4916286;29;20072;-82
2021/12/21 13:03:50;;;;;;;2.15;1.08;;;3.20;91.00;;;;;;4901146;29;20102;-81
2021/12/21 13:06:21;;;;;;;1.98;1.05;;;3.20;90.90;;;;;;4907581;29;20048;-77
2021/12/21 13:08:47;;;;;;;2.95;1.30;;;3.30;91.00;;;;;;4897171;29;20047;-77
2021/12/21 13:11:20;;;;;;;2.72;1.17;;;3.30;90.90;;;;;;4881696;29;20048;-78
2021/12/21 13:13:47;;;;;;;2.22;1.33;;;3.40;90.90;;;;;;4881609;29;20439;-78
2021/12/21 13:16:15;;;;;;;2.08;1.13;;;3.40;90.90;;;;;;4899126;29;20451;-78
2021/12/21 13:18:43;;;;;;;2.20;1.10;;;3.40;90.90;;;;;;4900639;29;20376;-79
2021/12/21 13:21:20;;;;;;;1.95;1.20;;;3.40;90.90;;;;;;4900760;29;20044;-77
2021/12/21 13:23:49;;;;;;;2.40;1.50;;;3.40;90.90;;;;;;4900868;29;20048;-78
2021/12/21 13:26:15;;;;;;;2.13;1.17;;;3.50;90.90;;;;;;4901042;29;20050;-77
2021/12/21 13:28:52;;;;;;;1.83;1.25;;;3.50;90.90;;;;;;4897783;29;20048;-77
2021/12/21 13:31:21;;;;;;;2.75;1.45;;;3.50;90.80;;;;;;4917132;29;20064;-77
2021/12/21 13:33:56;;;;;;;2.60;1.48;;;3.50;90.80;;;;;;4884755;29;20355;-77
2021/12/21 13:36:41;;;;;;;2.75;1.73;;;3.50;90.80;;;;;;4898738;29;20025;-77
2021/12/21 13:39:28;;;;;;;3.10;1.30;;;3.50;90.80;;;;;;4885041;29;20123;-76
2021/12/21 13:41:59;;;;;;;1.95;1.30;;;3.50;90.80;;;;;;4917153;29;20036;-77
2021/12/21 13:44:29;;;;;;;2.15;1.23;;;3.50;90.70;;;;;;4898485;29;20501;-77
2021/12/21 13:46:58;;;;;;;2.05;1.13;;;3.50;90.80;;;;;;4917272;29;20036;-77
2021/12/21 13:49:24;;;;;;;2.67;1.40;;;3.50;90.80;;;;;;4899850;29;20098;-76
2021/12/21 13:51:52;;;;;;;1.95;1.10;;;3.50;90.80;;;;;;4916608;29;20044;-77
2021/12/21 13:54:19;;;;;;;3.15;1.58;;;3.50;90.80;;;;;;4898988;29;20499;-77
2021/12/21 13:56:47;;;;;;;2.25;1.20;;;3.50;90.80;;;;;;4899678;29;20044;-77
2021/12/21 13:59:13;;;;;;;2.05;1.38;;;3.60;90.90;;;;;;4884164;29;20036;-77
2021/12/21 14:01:39;;;;;;;3.40;1.63;;;3.60;90.90;;;;;;4883975;29;20039;-77
2021/12/21 14:04:11;;;;;;;1.70;0.98;;;3.50;90.80;;;;;;4916442;29;20052;-77
2021/12/21 14:06:39;;;;;;;1.52;0.90;;;3.50;90.80;;;;;;4900182;29;20040;-77
2021/12/21 14:09:08;;;;;;;1.73;0.82;;;3.50;90.80;;;;;;4899127;29;20044;-78
2021/12/21 14:11:37;;;;;;;2.53;1.25;;;3.50;90.90;;;;;;4899966;29;20130;-77
2021/12/21 14:14:14;;;;;;;1.75;0.95;;;3.60;90.90;;;;;;4916456;29;20059;-78
2021/12/21 14:16:43;;;;;;;3.10;1.00;;;3.50;90.90;;;;;;4899764;29;20031;-77
2021/12/21 14:19:14;;;;;;;2.58;1.20;;;3.50;91.00;;;;;;4884157;29;20036;-78
2021/12/21 14:21:39;;;;;;;2.33;1.40;;;3.40;90.90;;;;;;4900701;29;20062;-77